createdAt,value
2023-02-17T00:00:23.610Z,9.00
2023-02-17T00:01:33.659Z,9.00
2023-02-17T00:02:36.000Z,9.00
2023-02-17T00:03:38.399Z,9.00
2023-02-17T00:04:40.815Z,9.00
2023-02-17T00:05:43.118Z,8.90
2023-02-17T00:06:45.410Z,8.90
2023-02-17T00:07:47.676Z,8.90
2023-02-17T00:08:50.782Z,9.00
2023-02-17T00:09:53.118Z,8.90
2023-02-17T00:10:57.688Z,8.90
2023-02-17T00:11:59.971Z,8.90
2023-02-17T00:13:02.328Z,8.90
2023-02-17T00:14:04.655Z,8.90
2023-02-17T00:15:07.597Z,8.90
2023-02-17T00:16:24.652Z,8.90
2023-02-17T00:17:26.959Z,8.90
2023-02-17T00:18:29.191Z,8.90
2023-02-17T00:19:31.546Z,8.90
2023-02-17T00:20:33.889Z,8.90
2023-02-17T00:21:36.135Z,8.90
2023-02-17T00:22:38.511Z,8.90
2023-02-17T00:23:40.785Z,8.80
2023-02-17T00:24:43.286Z,8.90
2023-02-17T00:25:45.715Z,8.80
2023-02-17T00:26:48.364Z,8.80
2023-02-17T00:27:50.662Z,8.80
2023-02-17T00:28:52.965Z,8.90
2023-02-17T00:29:55.223Z,8.80
2023-02-17T00:30:57.646Z,8.80
2023-02-17T00:32:00.052Z,8.80
2023-02-17T00:33:02.447Z,8.80
2023-02-17T00:34:04.704Z,8.80
2023-02-17T00:35:07.185Z,8.80
2023-02-17T00:36:13.469Z,8.70
2023-02-17T00:37:15.694Z,8.70
2023-02-17T00:38:17.961Z,8.70
2023-02-17T00:39:20.588Z,8.70
2023-02-17T00:40:24.531Z,8.70
2023-02-17T00:41:28.306Z,8.70
2023-02-17T00:42:32.823Z,8.70
2023-02-17T00:43:35.235Z,8.70
2023-02-17T00:44:37.644Z,8.70
2023-02-17T00:45:39.989Z,8.70
2023-02-17T00:46:42.326Z,8.70
2023-02-17T00:47:44.574Z,8.70
2023-02-17T00:48:48.254Z,8.70
2023-02-17T00:49:50.553Z,8.70
2023-02-17T00:50:54.111Z,8.70
2023-02-17T00:52:02.158Z,8.70
2023-02-17T00:53:04.429Z,8.70
2023-02-17T00:54:06.687Z,8.70
2023-02-17T00:55:09.023Z,8.70
2023-02-17T00:56:12.236Z,8.70
2023-02-17T00:57:14.527Z,8.70
2023-02-17T00:58:17.123Z,8.70
2023-02-17T00:59:19.422Z,8.70
2023-02-17T01:00:22.212Z,8.70
2023-02-17T01:01:24.597Z,8.70
2023-02-17T01:02:26.895Z,8.70
2023-02-17T01:03:29.764Z,8.70
2023-02-17T01:04:32.297Z,8.70
2023-02-17T01:05:34.730Z,8.70
2023-02-17T01:06:38.959Z,8.70
2023-02-17T01:07:42.515Z,8.70
2023-02-17T01:08:44.832Z,8.70
2023-02-17T01:09:47.201Z,8.60
2023-02-17T01:10:50.529Z,8.60
2023-02-17T01:11:52.860Z,8.60
2023-02-17T01:12:55.156Z,8.60
2023-02-17T01:14:01.391Z,8.60
2023-02-17T01:15:04.560Z,8.60
2023-02-17T01:16:07.289Z,8.60
2023-02-17T01:17:09.797Z,8.60
2023-02-17T01:18:12.120Z,8.60
2023-02-17T01:19:17.918Z,8.60
2023-02-17T01:20:23.135Z,8.60
2023-02-17T01:21:27.635Z,8.60
2023-02-17T01:22:30.238Z,8.60
2023-02-17T01:23:32.525Z,8.60
2023-02-17T01:24:34.808Z,8.60
2023-02-17T01:25:43.547Z,8.60
2023-02-17T01:26:46.138Z,8.60
2023-02-17T01:27:48.502Z,8.60
2023-02-17T01:28:52.417Z,8.60
2023-02-17T01:29:55.254Z,8.60
2023-02-17T01:30:57.720Z,8.60
2023-02-17T01:32:00.138Z,8.60
2023-02-17T01:33:02.632Z,8.60
2023-02-17T01:34:05.327Z,8.60
2023-02-17T01:35:07.938Z,8.60
2023-02-17T01:36:13.916Z,8.60
2023-02-17T01:37:16.284Z,8.60
2023-02-17T01:38:18.640Z,8.60
2023-02-17T01:39:20.939Z,8.60
2023-02-17T01:40:23.292Z,8.60
2023-02-17T01:41:27.805Z,8.60
2023-02-17T01:42:30.177Z,8.60
2023-02-17T01:43:33.420Z,8.60
2023-02-17T01:44:35.713Z,8.70
2023-02-17T01:45:50.512Z,8.70
2023-02-17T01:46:55.298Z,8.70
2023-02-17T01:48:00.369Z,8.70
2023-02-17T01:49:29.972Z,8.70
2023-02-17T01:50:39.776Z,8.70
2023-02-17T01:51:42.590Z,8.70
2023-02-17T01:52:45.342Z,8.70
2023-02-17T01:53:54.894Z,8.70
2023-02-17T01:55:00.725Z,8.70
2023-02-17T01:56:05.082Z,8.70
2023-02-17T01:57:07.895Z,8.70
2023-02-17T01:58:14.996Z,8.70
2023-02-17T01:59:21.826Z,8.70
2023-02-17T02:00:26.487Z,8.70
2023-02-17T02:01:31.361Z,8.70
2023-02-17T02:02:33.900Z,8.70
2023-02-17T02:03:37.596Z,8.70
2023-02-17T02:04:43.186Z,8.70
2023-02-17T02:05:45.711Z,8.70
2023-02-17T02:06:48.301Z,8.70
2023-02-17T02:07:51.244Z,8.70
2023-02-17T02:08:56.651Z,8.70
2023-02-17T02:09:59.609Z,8.70
2023-02-17T02:11:02.624Z,8.70
2023-02-17T02:12:18.181Z,8.70
2023-02-17T02:13:20.946Z,8.70
2023-02-17T02:14:23.485Z,8.70
2023-02-17T02:15:31.780Z,8.70
2023-02-17T02:16:40.104Z,8.70
2023-02-17T02:18:03.666Z,8.70
2023-02-17T02:19:36.229Z,8.70
2023-02-17T02:21:07.178Z,8.70
2023-02-17T02:22:29.972Z,8.70
2023-02-17T02:23:59.381Z,8.70
2023-02-17T02:25:26.182Z,8.70
2023-02-17T02:26:50.994Z,8.60
2023-02-17T02:28:28.323Z,8.60
2023-02-17T02:30:09.849Z,8.60
2023-02-17T02:31:32.474Z,8.60
2023-02-17T02:32:48.519Z,8.60
2023-02-17T02:33:56.762Z,8.60
2023-02-17T02:35:11.691Z,8.60
2023-02-17T02:36:22.954Z,8.60
2023-02-17T02:37:31.034Z,8.60
2023-02-17T02:38:57.514Z,8.60
2023-02-17T02:40:05.465Z,8.60
2023-02-17T02:41:21.515Z,8.60
2023-02-17T02:42:27.123Z,8.60
2023-02-17T02:43:30.517Z,8.60
2023-02-17T02:44:34.293Z,8.60
2023-02-17T02:45:36.775Z,8.60
2023-02-17T02:46:39.264Z,8.60
2023-02-17T02:47:54.765Z,8.60
2023-02-17T02:49:00.386Z,8.60
2023-02-17T02:50:03.527Z,8.60
2023-02-17T02:51:18.679Z,8.60
2023-02-17T02:52:55.817Z,8.60
2023-02-17T02:54:23.844Z,8.60
2023-02-17T02:55:45.239Z,8.60
2023-02-17T02:57:11.513Z,8.60
2023-02-17T02:58:20.396Z,8.60
2023-02-17T02:59:48.730Z,8.60
2023-02-17T03:01:01.837Z,8.60
2023-02-17T03:02:25.961Z,8.60
2023-02-17T03:03:42.050Z,8.60
2023-02-17T03:05:39.514Z,8.60
2023-02-17T03:06:54.106Z,8.60
2023-02-17T03:08:02.156Z,8.60
2023-02-17T03:09:22.472Z,8.60
2023-02-17T03:10:25.227Z,8.60
2023-02-17T03:11:33.580Z,8.60
2023-02-17T03:12:39.371Z,8.60
2023-02-17T03:13:42.596Z,8.60
2023-02-17T03:14:51.031Z,8.60
2023-02-17T03:15:53.435Z,8.60
2023-02-17T03:16:55.763Z,8.60
2023-02-17T03:18:02.134Z,8.60
2023-02-17T03:19:05.715Z,8.60
2023-02-17T03:20:09.140Z,8.60
2023-02-17T03:21:16.390Z,8.60
2023-02-17T03:22:40.750Z,8.60
2023-02-17T03:23:43.639Z,8.60
2023-02-17T03:24:45.944Z,8.60
2023-02-17T03:25:48.300Z,8.60
2023-02-17T03:26:50.772Z,8.60
2023-02-17T03:27:53.350Z,8.60
2023-02-17T03:28:55.593Z,8.70
2023-02-17T03:29:58.418Z,8.70
2023-02-17T03:31:00.763Z,8.70
2023-02-17T03:32:03.216Z,8.70
2023-02-17T03:33:05.775Z,8.70
2023-02-17T03:34:08.596Z,8.70
2023-02-17T03:35:11.718Z,8.70
2023-02-17T03:36:13.936Z,8.70
2023-02-17T03:37:16.427Z,8.70
2023-02-17T03:38:19.094Z,8.70
2023-02-17T03:39:21.374Z,8.70
2023-02-17T03:40:23.700Z,8.70
2023-02-17T03:41:26.391Z,8.70
2023-02-17T03:42:28.658Z,8.70
2023-02-17T03:43:31.044Z,8.70
2023-02-17T03:44:33.528Z,8.70
2023-02-17T03:45:37.319Z,8.70
2023-02-17T03:46:41.057Z,8.70
2023-02-17T03:47:43.361Z,8.70
2023-02-17T03:48:45.714Z,8.70
2023-02-17T03:49:48.073Z,8.70
2023-02-17T03:50:50.354Z,8.70
2023-02-17T03:51:52.613Z,8.80
2023-02-17T03:52:54.958Z,8.80
2023-02-17T03:53:57.261Z,8.80
2023-02-17T03:54:59.556Z,8.80
2023-02-17T03:56:01.809Z,8.80
2023-02-17T03:57:04.208Z,8.80
2023-02-17T03:58:06.504Z,8.80
2023-02-17T03:59:09.860Z,8.80
2023-02-17T04:00:12.665Z,8.80
2023-02-17T04:01:18.056Z,8.80
2023-02-17T04:02:20.376Z,8.80
2023-02-17T04:03:22.717Z,8.80
2023-02-17T04:04:25.247Z,8.80
2023-02-17T04:05:27.668Z,8.80
2023-02-17T04:06:30.092Z,8.80
2023-02-17T04:07:32.383Z,8.80
2023-02-17T04:08:34.992Z,8.80
2023-02-17T04:09:37.239Z,8.80
2023-02-17T04:10:39.533Z,8.80
2023-02-17T04:11:42.745Z,8.80
2023-02-17T04:12:45.112Z,8.70
2023-02-17T04:13:47.373Z,8.80
2023-02-17T04:14:49.730Z,8.70
2023-02-17T04:15:52.891Z,8.80
2023-02-17T04:16:55.183Z,8.70
2023-02-17T04:17:57.537Z,8.70
2023-02-17T04:18:59.844Z,8.70
2023-02-17T04:20:02.152Z,8.70
2023-02-17T04:21:04.783Z,8.70
2023-02-17T04:22:09.033Z,8.70
2023-02-17T04:23:11.999Z,8.70
2023-02-17T04:24:14.354Z,8.70
2023-02-17T04:25:16.731Z,8.70
2023-02-17T04:26:18.990Z,8.70
2023-02-17T04:27:21.344Z,8.70
2023-02-17T04:28:23.804Z,8.70
2023-02-17T04:29:26.095Z,8.70
2023-02-17T04:30:28.452Z,8.70
2023-02-17T04:31:31.066Z,8.70
2023-02-17T04:32:33.324Z,8.70
2023-02-17T04:33:35.808Z,8.70
2023-02-17T04:34:38.225Z,8.70
2023-02-17T04:35:40.806Z,8.70
2023-02-17T04:36:44.335Z,8.70
2023-02-17T04:37:46.936Z,8.70
2023-02-17T04:38:49.268Z,8.70
2023-02-17T04:39:51.494Z,8.70
2023-02-17T04:40:56.106Z,8.70
2023-02-17T04:41:58.437Z,8.70
2023-02-17T04:43:00.969Z,8.70
2023-02-17T04:44:03.303Z,8.70
2023-02-17T04:45:06.920Z,8.70
2023-02-17T04:46:11.100Z,8.70
2023-02-17T04:47:13.399Z,8.80
2023-02-17T04:48:15.843Z,8.70
2023-02-17T04:49:18.171Z,8.80
2023-02-17T04:50:21.076Z,8.70
2023-02-17T04:51:23.478Z,8.80
2023-02-17T04:52:25.833Z,8.80
2023-02-17T04:53:28.070Z,8.80
2023-02-17T04:54:30.371Z,8.80
2023-02-17T04:55:33.501Z,8.70
2023-02-17T04:56:35.761Z,8.70
2023-02-17T04:57:38.030Z,8.70
2023-02-17T04:58:40.434Z,8.80
2023-02-17T04:59:42.767Z,8.80
2023-02-17T05:00:47.731Z,8.80
2023-02-17T05:01:49.952Z,8.80
2023-02-17T05:02:52.571Z,8.80
2023-02-17T05:03:54.838Z,8.80
2023-02-17T05:04:57.435Z,8.80
2023-02-17T05:05:59.834Z,8.80
2023-02-17T05:07:02.155Z,8.80
2023-02-17T05:08:04.834Z,8.90
2023-02-17T05:09:07.212Z,8.90
2023-02-17T05:10:09.965Z,8.90
2023-02-17T05:11:12.274Z,8.90
2023-02-17T05:12:14.690Z,8.90
2023-02-17T05:13:16.936Z,8.90
2023-02-17T05:14:19.246Z,8.90
2023-02-17T05:15:21.597Z,8.90
2023-02-17T05:16:23.926Z,8.90
2023-02-17T05:17:26.198Z,8.90
2023-02-17T05:18:28.477Z,8.90
2023-02-17T05:19:30.726Z,9.00
2023-02-17T05:20:33.030Z,9.00
2023-02-17T05:21:35.346Z,8.90
2023-02-17T05:22:37.732Z,9.00
2023-02-17T05:23:41.396Z,9.00
2023-02-17T05:24:43.736Z,9.00
2023-02-17T05:25:46.016Z,9.00
2023-02-17T05:26:48.359Z,9.00
2023-02-17T05:27:50.610Z,9.00
2023-02-17T05:28:52.963Z,9.10
2023-02-17T05:29:55.338Z,9.10
2023-02-17T05:30:57.678Z,9.10
2023-02-17T05:32:00.061Z,9.10
2023-02-17T05:33:02.450Z,9.10
2023-02-17T05:34:04.816Z,9.10
2023-02-17T05:35:07.557Z,9.10
2023-02-17T05:36:11.666Z,9.10
2023-02-17T05:37:14.019Z,9.10
2023-02-17T05:38:16.288Z,9.20
2023-02-17T05:39:18.562Z,9.10
2023-02-17T05:40:20.972Z,9.10
2023-02-17T05:41:23.578Z,9.20
2023-02-17T05:42:28.865Z,9.20
2023-02-17T05:43:31.236Z,9.20
2023-02-17T05:44:33.578Z,9.20
2023-02-17T05:45:35.855Z,9.20
2023-02-17T05:46:38.204Z,9.20
2023-02-17T05:47:40.456Z,9.20
2023-02-17T05:48:42.749Z,9.20
2023-02-17T05:49:45.003Z,9.20
2023-02-17T05:50:47.234Z,9.20
2023-02-17T05:51:49.547Z,9.20
2023-02-17T05:52:51.783Z,9.20
2023-02-17T05:53:54.038Z,9.20
2023-02-17T05:54:56.338Z,9.20
2023-02-17T05:55:58.637Z,9.30
2023-02-17T05:57:01.016Z,9.30
2023-02-17T05:58:03.256Z,9.30
2023-02-17T05:59:05.558Z,9.30
2023-02-17T06:00:08.473Z,9.30
2023-02-17T06:01:16.746Z,9.30
2023-02-17T06:02:19.201Z,9.30
2023-02-17T06:03:21.485Z,9.30
2023-02-17T06:04:24.144Z,9.30
2023-02-17T06:05:26.521Z,9.30
2023-02-17T06:06:28.764Z,9.30
2023-02-17T06:07:31.154Z,9.30
2023-02-17T06:08:33.970Z,9.30
2023-02-17T06:09:36.204Z,9.30
2023-02-17T06:10:38.481Z,9.30
2023-02-17T06:11:40.790Z,9.40
2023-02-17T06:12:43.170Z,9.40
2023-02-17T06:13:45.436Z,9.40
2023-02-17T06:14:47.647Z,9.40
2023-02-17T06:15:50.019Z,9.40
2023-02-17T06:16:53.754Z,9.40
2023-02-17T06:17:56.203Z,9.40
2023-02-17T06:19:00.178Z,9.40
2023-02-17T06:20:02.532Z,9.40
2023-02-17T06:21:05.050Z,9.50
2023-02-17T06:22:07.449Z,9.50
2023-02-17T06:23:09.795Z,9.50
2023-02-17T06:24:12.086Z,9.50
2023-02-17T06:25:14.317Z,9.40
2023-02-17T06:26:18.548Z,9.50
2023-02-17T06:27:21.276Z,9.50
2023-02-17T06:28:23.541Z,9.50
2023-02-17T06:29:27.617Z,9.50
2023-02-17T06:30:30.280Z,9.50
2023-02-17T06:31:32.913Z,9.50
2023-02-17T06:32:35.259Z,9.50
2023-02-17T06:33:37.532Z,9.50
2023-02-17T06:34:39.793Z,9.50
2023-02-17T06:35:42.146Z,9.50
2023-02-17T06:36:44.442Z,9.50
2023-02-17T06:37:46.727Z,9.50
2023-02-17T06:38:49.040Z,9.60
2023-02-17T06:39:51.327Z,9.60
2023-02-17T06:40:54.528Z,9.60
2023-02-17T06:41:56.780Z,9.60
2023-02-17T06:42:59.186Z,9.60
2023-02-17T06:44:01.528Z,9.60
2023-02-17T06:45:06.125Z,9.60
2023-02-17T06:46:08.908Z,9.60
2023-02-17T06:47:11.339Z,9.60
2023-02-17T06:48:13.806Z,9.60
2023-02-17T06:49:16.208Z,9.70
2023-02-17T06:50:18.516Z,9.60
2023-02-17T06:51:20.784Z,9.60
2023-02-17T06:52:23.046Z,9.60
2023-02-17T06:53:25.448Z,9.70
2023-02-17T06:54:27.774Z,9.60
2023-02-17T06:55:30.389Z,9.60
2023-02-17T06:56:32.714Z,9.60
2023-02-17T06:57:35.020Z,9.70
2023-02-17T06:58:38.070Z,9.70
2023-02-17T06:59:40.341Z,9.70
2023-02-17T07:00:42.703Z,9.70
2023-02-17T07:01:45.595Z,9.70
2023-02-17T07:02:48.028Z,9.70
2023-02-17T07:03:50.410Z,9.70
2023-02-17T07:04:52.682Z,9.70
2023-02-17T07:06:01.176Z,9.80
2023-02-17T07:07:03.472Z,9.80
2023-02-17T07:08:06.403Z,9.80
2023-02-17T07:09:11.575Z,9.80
2023-02-17T07:10:14.066Z,9.80
2023-02-17T07:11:17.028Z,9.80
2023-02-17T07:12:19.346Z,9.80
2023-02-17T07:13:21.698Z,9.80
2023-02-17T07:14:25.770Z,9.80
2023-02-17T07:15:28.133Z,9.80
2023-02-17T07:16:30.574Z,9.80
2023-02-17T07:17:32.881Z,9.80
2023-02-17T07:18:35.481Z,9.80
2023-02-17T07:19:37.814Z,9.80
2023-02-17T07:20:40.179Z,9.80
2023-02-17T07:21:43.246Z,9.80
2023-02-17T07:22:45.647Z,9.90
2023-02-17T07:23:48.469Z,9.90
2023-02-17T07:24:50.751Z,9.90
2023-02-17T07:25:53.028Z,9.90
2023-02-17T07:26:56.270Z,9.90
2023-02-17T07:28:00.150Z,9.90
2023-02-17T07:29:02.477Z,9.90
2023-02-17T07:30:06.956Z,9.90
2023-02-17T07:31:15.036Z,9.90
2023-02-17T07:32:17.313Z,10.00
2023-02-17T07:33:19.651Z,9.90
2023-02-17T07:34:22.205Z,10.00
2023-02-17T07:35:24.613Z,10.00
2023-02-17T07:36:27.020Z,9.90
2023-02-17T07:37:29.342Z,10.00
2023-02-17T07:38:33.383Z,10.00
2023-02-17T07:39:35.913Z,10.00
2023-02-17T07:40:38.876Z,10.00
2023-02-17T07:41:41.196Z,10.00
2023-02-17T07:42:45.042Z,10.10
2023-02-17T07:43:48.812Z,10.10
2023-02-17T07:44:52.239Z,10.10
2023-02-17T07:45:55.501Z,10.10
2023-02-17T07:46:58.949Z,10.20
2023-02-17T07:48:01.259Z,10.20
2023-02-17T07:49:03.925Z,10.20
2023-02-17T07:50:06.953Z,10.20
2023-02-17T07:51:20.733Z,10.30
2023-02-17T07:52:23.058Z,10.30
2023-02-17T07:53:26.791Z,10.30
2023-02-17T07:54:29.044Z,10.40
2023-02-17T07:55:31.276Z,10.40
2023-02-17T07:56:34.012Z,10.40
2023-02-17T07:57:37.193Z,10.40
2023-02-17T07:58:41.213Z,10.40
2023-02-17T07:59:43.611Z,10.50
2023-02-17T08:00:45.948Z,10.50
2023-02-17T08:01:48.590Z,10.50
2023-02-17T08:02:50.870Z,10.50
2023-02-17T08:03:53.542Z,10.50
2023-02-17T08:04:55.944Z,10.50
2023-02-17T08:05:58.194Z,10.50
2023-02-17T08:07:00.537Z,10.60
2023-02-17T08:08:21.740Z,10.50
2023-02-17T08:09:42.737Z,10.50
2023-02-17T08:11:03.603Z,10.60
2023-02-17T08:12:24.917Z,10.50
2023-02-17T08:13:27.960Z,10.50
2023-02-17T08:14:31.450Z,10.50
2023-02-17T08:15:34.934Z,10.60
2023-02-17T08:16:37.356Z,10.60
2023-02-17T08:17:39.798Z,10.60
2023-02-17T08:18:42.097Z,10.60
2023-02-17T08:19:48.348Z,10.60
2023-02-17T08:20:51.551Z,10.60
2023-02-17T08:21:54.139Z,10.60
2023-02-17T08:22:56.365Z,10.60
2023-02-17T08:23:58.748Z,10.70
2023-02-17T08:25:01.106Z,10.60
2023-02-17T08:26:05.115Z,10.70
2023-02-17T08:27:07.669Z,10.70
2023-02-17T08:28:11.753Z,10.70
2023-02-17T08:29:14.090Z,10.70
2023-02-17T08:30:16.571Z,10.70
2023-02-17T08:31:25.585Z,10.70
2023-02-17T08:32:28.005Z,10.80
2023-02-17T08:33:30.670Z,10.70
2023-02-17T08:34:36.074Z,10.70
2023-02-17T08:35:38.389Z,10.80
2023-02-17T08:36:40.906Z,10.70
2023-02-17T08:37:43.256Z,10.70
2023-02-17T08:38:50.300Z,10.70
2023-02-17T08:39:53.115Z,10.70
2023-02-17T08:40:55.629Z,10.80
2023-02-17T08:41:57.910Z,10.80
2023-02-17T08:43:01.753Z,10.70
2023-02-17T08:44:12.336Z,10.80
2023-02-17T08:45:16.299Z,10.80
2023-02-17T08:46:19.699Z,10.80
2023-02-17T08:47:22.113Z,10.80
2023-02-17T08:48:24.373Z,10.90
2023-02-17T08:49:28.581Z,10.90
2023-02-17T08:50:31.813Z,10.80
2023-02-17T08:51:35.055Z,10.90
2023-02-17T08:52:37.495Z,10.90
2023-02-17T08:53:39.742Z,10.80
2023-02-17T08:54:42.006Z,10.90
2023-02-17T08:55:49.506Z,10.90
2023-02-17T08:56:52.224Z,10.90
2023-02-17T08:57:54.574Z,10.90
2023-02-17T08:58:57.347Z,10.80
2023-02-17T08:59:59.600Z,10.80
2023-02-17T09:01:02.789Z,10.80
2023-02-17T09:02:05.160Z,10.80
2023-02-17T09:03:07.740Z,10.80
2023-02-17T09:04:12.958Z,10.80
2023-02-17T09:05:15.427Z,10.80
2023-02-17T09:06:18.098Z,10.80
2023-02-17T09:07:20.368Z,10.80
2023-02-17T09:08:23.450Z,10.90
2023-02-17T09:09:27.290Z,10.90
2023-02-17T09:10:30.805Z,10.90
2023-02-17T09:11:33.282Z,10.90
2023-02-17T09:12:35.849Z,10.90
2023-02-17T09:13:38.196Z,10.90
2023-02-17T09:14:40.894Z,10.90
2023-02-17T09:15:43.380Z,10.90
2023-02-17T09:16:45.766Z,10.90
2023-02-17T09:17:48.136Z,10.90
2023-02-17T09:18:52.303Z,10.90
2023-02-17T09:19:54.853Z,10.90
2023-02-17T09:20:58.492Z,10.90
2023-02-17T09:22:00.935Z,10.90
2023-02-17T09:23:03.785Z,10.90
2023-02-17T09:24:06.352Z,10.90
2023-02-17T09:25:09.307Z,10.90
2023-02-17T09:26:13.137Z,10.90
2023-02-17T09:27:15.452Z,10.90
2023-02-17T09:28:17.732Z,10.90
2023-02-17T09:29:20.173Z,10.90
2023-02-17T09:30:22.653Z,10.90
2023-02-17T09:31:27.033Z,10.90
2023-02-17T09:32:29.570Z,10.90
2023-02-17T09:33:31.822Z,10.90
2023-02-17T09:34:38.595Z,10.90
2023-02-17T09:35:42.017Z,10.90
2023-02-17T09:36:44.425Z,10.90
2023-02-17T09:37:46.956Z,10.90
2023-02-17T09:38:50.205Z,10.90
2023-02-17T09:39:52.655Z,10.90
2023-02-17T09:40:58.187Z,10.90
2023-02-17T09:42:00.782Z,10.90
2023-02-17T09:43:03.113Z,10.90
2023-02-17T09:44:07.654Z,10.90
2023-02-17T09:45:20.904Z,10.90
2023-02-17T09:46:29.218Z,10.90
2023-02-17T09:47:59.844Z,10.90
2023-02-17T09:49:17.677Z,10.90
2023-02-17T09:50:28.938Z,10.90
2023-02-17T09:51:34.340Z,10.90
2023-02-17T09:52:49.253Z,10.90
2023-02-17T09:54:38.258Z,10.90
2023-02-17T09:55:51.478Z,10.90
2023-02-17T09:56:54.862Z,11.00
2023-02-17T09:58:12.889Z,11.00
2023-02-17T09:59:21.813Z,10.90
2023-02-17T10:00:39.730Z,11.00
2023-02-17T10:01:44.309Z,11.00
2023-02-17T10:03:00.420Z,11.00
2023-02-17T10:04:14.347Z,11.00
2023-02-17T10:05:22.061Z,11.00
2023-02-17T10:06:27.158Z,11.00
2023-02-17T10:08:07.619Z,11.00
2023-02-17T10:09:16.475Z,11.00
2023-02-17T10:10:23.897Z,11.00
2023-02-17T10:11:32.408Z,11.00
2023-02-17T10:12:43.716Z,11.00
2023-02-17T10:13:47.287Z,11.00
2023-02-17T10:14:52.193Z,11.00
2023-02-17T10:15:58.601Z,11.00
2023-02-17T10:17:08.792Z,11.10
2023-02-17T10:18:22.919Z,11.10
2023-02-17T10:19:41.252Z,11.10
2023-02-17T10:21:00.636Z,11.10
2023-02-17T10:22:20.772Z,11.20
2023-02-17T10:23:25.774Z,11.20
2023-02-17T10:24:28.132Z,11.20
2023-02-17T10:26:02.503Z,11.20
2023-02-17T10:27:19.862Z,11.20
2023-02-17T10:28:44.546Z,11.20
2023-02-17T10:30:20.916Z,11.20
2023-02-17T10:31:45.731Z,11.20
2023-02-17T10:32:59.284Z,11.20
2023-02-17T10:34:45.741Z,11.20
2023-02-17T10:35:51.988Z,11.30
2023-02-17T10:37:11.669Z,11.40
2023-02-17T10:38:18.382Z,11.40
2023-02-17T10:39:39.449Z,11.50
2023-02-17T10:40:42.536Z,11.50
2023-02-17T10:41:48.561Z,11.60
2023-02-17T10:42:56.786Z,11.60
2023-02-17T10:44:00.151Z,11.60
2023-02-17T10:45:24.472Z,11.70
2023-02-17T10:46:30.550Z,11.70
2023-02-17T10:47:36.729Z,11.70
2023-02-17T10:48:59.749Z,11.70
2023-02-17T10:50:03.479Z,11.80
2023-02-17T10:51:06.770Z,11.80
2023-02-17T10:52:19.130Z,11.80
2023-02-17T10:53:31.057Z,11.90
2023-02-17T10:54:38.486Z,11.90
2023-02-17T10:56:14.586Z,11.90
2023-02-17T10:57:19.409Z,12.00
2023-02-17T10:58:37.866Z,12.00
2023-02-17T10:59:43.111Z,12.10
2023-02-17T11:00:50.169Z,12.10
2023-02-17T11:01:56.342Z,12.20
2023-02-17T11:02:58.822Z,12.30
2023-02-17T11:04:13.319Z,12.40
2023-02-17T11:05:30.786Z,12.40
2023-02-17T11:06:38.420Z,12.50
2023-02-17T11:07:42.322Z,12.50
2023-02-17T11:09:01.520Z,12.50
2023-02-17T11:10:20.951Z,12.50
2023-02-17T11:11:26.365Z,12.50
2023-02-17T11:12:34.701Z,12.50
2023-02-17T11:13:43.319Z,12.50
2023-02-17T11:14:55.043Z,12.50
2023-02-17T11:15:58.361Z,12.60
2023-02-17T11:17:29.499Z,12.60
2023-02-17T11:18:39.281Z,12.60
2023-02-17T11:19:41.721Z,12.60
2023-02-17T11:20:44.158Z,12.70
2023-02-17T11:21:46.995Z,12.70
2023-02-17T11:23:05.563Z,12.70
2023-02-17T11:24:11.864Z,12.70
2023-02-17T11:25:35.399Z,12.80
2023-02-17T11:26:37.884Z,12.80
2023-02-17T11:27:40.104Z,12.70
2023-02-17T11:28:42.418Z,12.80
2023-02-17T11:29:44.686Z,12.70
2023-02-17T11:30:53.507Z,12.70
2023-02-17T11:31:59.969Z,12.70
2023-02-17T11:33:24.384Z,12.80
2023-02-17T11:34:30.034Z,12.80
2023-02-17T11:35:38.540Z,12.80
2023-02-17T11:36:43.399Z,12.80
2023-02-17T11:37:45.678Z,12.80
2023-02-17T11:38:48.015Z,12.80
2023-02-17T11:39:55.055Z,12.80
2023-02-17T11:41:02.870Z,12.80
2023-02-17T11:42:23.590Z,12.80
2023-02-17T11:43:30.265Z,12.80
2023-02-17T11:44:32.776Z,12.80
2023-02-17T11:45:40.288Z,12.80
2023-02-17T11:46:53.390Z,12.80
2023-02-17T11:48:20.889Z,12.80
2023-02-17T11:50:04.797Z,12.80
2023-02-17T11:51:20.929Z,12.80
2023-02-17T11:52:53.923Z,12.80
2023-02-17T11:54:14.575Z,12.80
2023-02-17T11:55:59.576Z,12.80
2023-02-17T11:57:30.640Z,12.80
2023-02-17T11:58:58.596Z,12.80
2023-02-17T12:00:38.054Z,12.90
2023-02-17T12:01:49.065Z,12.90
2023-02-17T12:03:03.678Z,12.90
2023-02-17T12:04:25.115Z,12.90
2023-02-17T12:05:47.383Z,12.90
2023-02-17T12:07:26.845Z,13.00
2023-02-17T12:08:50.718Z,13.00
2023-02-17T12:10:14.448Z,13.10
2023-02-17T12:11:45.036Z,13.10
2023-02-17T12:13:28.645Z,13.10
2023-02-17T12:14:52.412Z,13.00
2023-02-17T12:16:35.437Z,13.00
2023-02-17T12:17:52.727Z,13.00
2023-02-17T12:19:06.442Z,13.00
2023-02-17T12:20:11.860Z,13.00
2023-02-17T12:21:29.698Z,13.00
2023-02-17T12:22:55.128Z,12.90
2023-02-17T12:24:23.580Z,12.90
2023-02-17T12:25:53.328Z,12.90
2023-02-17T12:27:07.551Z,12.90
2023-02-17T12:28:37.638Z,12.90
2023-02-17T12:30:23.626Z,12.90
2023-02-17T12:31:52.060Z,13.00
2023-02-17T12:33:19.116Z,13.10
2023-02-17T12:34:40.711Z,13.10
2023-02-17T12:36:00.732Z,13.10
2023-02-17T12:37:06.652Z,13.20
2023-02-17T12:38:17.112Z,13.20
2023-02-17T12:39:25.017Z,13.30
2023-02-17T12:40:41.233Z,13.30
2023-02-17T12:41:51.138Z,13.40
2023-02-17T12:42:57.779Z,13.40
2023-02-17T12:44:17.812Z,13.50
2023-02-17T12:45:25.078Z,13.50
2023-02-17T12:46:39.402Z,13.60
2023-02-17T12:47:59.419Z,13.50
2023-02-17T12:49:10.329Z,13.60
2023-02-17T12:50:32.990Z,13.60
2023-02-17T12:51:54.688Z,13.60
2023-02-17T12:53:01.779Z,13.60
2023-02-17T12:54:26.503Z,13.70
2023-02-17T12:55:40.450Z,13.70
2023-02-17T12:56:50.866Z,13.70
2023-02-17T12:57:58.529Z,13.80
2023-02-17T12:59:12.907Z,13.80
2023-02-17T13:00:22.409Z,13.80
2023-02-17T13:01:29.418Z,13.80
2023-02-17T13:02:31.849Z,13.80
2023-02-17T13:03:35.986Z,13.90
2023-02-17T13:04:39.367Z,13.90
2023-02-17T13:06:06.446Z,13.90
2023-02-17T13:07:23.793Z,13.90
2023-02-17T13:08:32.073Z,13.90
2023-02-17T13:09:39.778Z,13.90
2023-02-17T13:10:42.336Z,14.00
2023-02-17T13:11:45.913Z,13.90
2023-02-17T13:13:04.062Z,13.90
2023-02-17T13:14:13.247Z,13.90
2023-02-17T13:15:49.722Z,13.90
2023-02-17T13:16:52.355Z,13.90
2023-02-17T13:18:01.361Z,13.90
2023-02-17T13:19:08.264Z,13.90
2023-02-17T13:20:10.523Z,13.80
2023-02-17T13:21:23.235Z,13.80
2023-02-17T13:22:25.553Z,13.80
2023-02-17T13:23:37.700Z,13.80
2023-02-17T13:24:53.151Z,13.80
2023-02-17T13:26:08.585Z,13.80
2023-02-17T13:27:12.400Z,13.80
2023-02-17T13:28:33.181Z,13.80
2023-02-17T13:29:36.676Z,13.80
2023-02-17T13:30:41.446Z,13.80
2023-02-17T13:32:06.555Z,13.90
2023-02-17T13:33:30.083Z,13.90
2023-02-17T13:34:45.118Z,13.80
2023-02-17T13:35:47.876Z,13.80
2023-02-17T13:36:50.187Z,13.80
2023-02-17T13:37:53.251Z,13.80
2023-02-17T13:39:24.798Z,13.90
2023-02-17T13:40:30.106Z,13.90
2023-02-17T13:41:48.837Z,13.90
2023-02-17T13:42:55.805Z,13.90
2023-02-17T13:43:58.462Z,13.90
2023-02-17T13:45:01.413Z,13.90
2023-02-17T13:46:05.927Z,13.90
2023-02-17T13:47:16.871Z,13.90
2023-02-17T13:48:22.125Z,13.90
2023-02-17T13:49:27.792Z,13.90
2023-02-17T13:50:36.401Z,13.90
2023-02-17T13:51:38.637Z,13.90
2023-02-17T13:52:43.713Z,13.90
2023-02-17T13:53:50.928Z,13.90
2023-02-17T13:55:01.386Z,13.90
2023-02-17T13:56:06.871Z,13.90
2023-02-17T13:57:32.484Z,13.90
2023-02-17T13:58:38.187Z,13.90
2023-02-17T13:59:40.530Z,13.80
2023-02-17T14:00:43.938Z,13.80
2023-02-17T14:01:47.048Z,13.80
2023-02-17T14:02:53.177Z,13.80
2023-02-17T14:03:56.968Z,13.80
2023-02-17T14:05:05.385Z,13.80
2023-02-17T14:06:12.998Z,13.80
2023-02-17T14:07:16.448Z,13.70
2023-02-17T14:08:37.018Z,13.70
2023-02-17T14:09:41.761Z,13.70
2023-02-17T14:10:44.710Z,13.60
2023-02-17T14:11:47.022Z,13.70
2023-02-17T14:12:49.415Z,13.70
2023-02-17T14:13:54.907Z,13.60
2023-02-17T14:14:57.332Z,13.60
2023-02-17T14:16:00.754Z,13.60
2023-02-17T14:17:05.885Z,13.60
2023-02-17T14:18:16.076Z,13.60
2023-02-17T14:19:19.267Z,13.50
2023-02-17T14:20:33.881Z,13.50
2023-02-17T14:21:42.389Z,13.50
2023-02-17T14:22:50.844Z,13.50
2023-02-17T14:24:02.383Z,13.50
2023-02-17T14:25:29.461Z,13.50
2023-02-17T14:26:46.991Z,13.50
2023-02-17T14:27:51.168Z,13.50
2023-02-17T14:28:56.731Z,13.40
2023-02-17T14:29:58.986Z,13.40
2023-02-17T14:31:19.513Z,13.40
2023-02-17T14:32:35.210Z,13.40
2023-02-17T14:33:37.557Z,13.40
2023-02-17T14:34:39.844Z,13.30
2023-02-17T14:36:00.364Z,13.30
2023-02-17T14:37:23.503Z,13.40
2023-02-17T14:38:35.274Z,13.30
2023-02-17T14:39:37.560Z,13.30
2023-02-17T14:40:40.338Z,13.30